• Join FlightAware (Why Join?)
  • Login
  • US Flag 
04:14PM EST


 

Airport Tracker/Info


-or-


 

Live Flight TrackerFlight Track Log ✈ SKQ45 ✈ 23-Apr-2013 ✈ KSTL - KOSU

Flight Track Log - Related Links

Times and Time Zones

All times are in EDT time to prevent confusion due to time zone crossing. See the SKQ45 flight status page for this flight to view local times or setup timezone preferences in your user account.

Time Position Orientation Groundspeed Altitude Reporting Facility
EDT Latitude Longitude Course Direction KTS MPH feet Rate Location/Type
12:11AM 38.7564 -90.3156 358° North 120 138 1,500  Level FAA TRACON SMA TRACON (SMA)
12:11AM 38.7678 -90.3161 358° North 130 150 1,900 1,500 Climbing FAA TRACON SMA TRACON (SMA)
12:11AM 38.7825 -90.3169 357° North 138 159 2,500 1,440 Climbing FAA TRACON SMA TRACON (SMA)
12:12AM 38.7947 -90.3175 358° North 141 162 2,900 1,620 Climbing FAA TRACON SMA TRACON (SMA)
12:12AM 38.8097 -90.3194 354° North 140 161 3,600 1,800 Climbing FAA TRACON SMA TRACON (SMA)
12:12AM 38.8217 -90.3211 354° North 141 162 4,100 1,500 Climbing FAA TRACON SMA TRACON (SMA)
12:13AM 38.8336 -90.3231 353° North 141 162 4,600 1,440 Climbing FAA TRACON SMA TRACON (SMA)
12:13AM 38.8489 -90.3250 354° North 142 163 5,100 1,200 Climbing FAA TRACON SMA TRACON (SMA)
12:13AM 38.8622 -90.3244 North 153 176 5,400 1,020 Climbing FAA TRACON SMA TRACON (SMA)
12:14AM 38.8711 -90.3106 51° Northeast 175 201 5,800 1,200 Climbing FAA TRACON SMA TRACON (SMA)
12:14AM 38.8764 -90.2869 74° East 180 207 6,200 1,140 Climbing FAA TRACON SMA TRACON (SMA)
12:14AM 38.8794 -90.2669 79° East 185 213 6,600 1,200 Climbing FAA TRACON SMA TRACON (SMA)
12:15AM 38.8836 -90.2461 76° East 194 223 7,000 1,140 Climbing FAA TRACON SMA TRACON (SMA)
12:15AM 38.8897 -90.2189 74° East 204 235 7,400 1,200 Climbing FAA TRACON SMA TRACON (SMA)
12:15AM 38.8942 -90.1969 75° East 207 238 7,800 1,200 Climbing FAA TRACON SMA TRACON (SMA)
12:16AM 38.8986 -90.1747 76° East 210 242 8,200 1,020 Climbing FAA TRACON SMA TRACON (SMA)
12:16AM 38.9033 -90.1514 75° East 216 249 8,500 1,680 Climbing FAA TRACON SMA TRACON (SMA)
12:16AM 38.9097 -90.1219 74° East 221 254 9,300 1,800 Climbing FAA TRACON SMA TRACON (SMA)
12:17AM 38.9142 -90.0989 76° East 221 254 9,700 1,020 Climbing FAA TRACON SMA TRACON (SMA)
12:17AM 38.9189 -90.0750 76° East 224 258 10,000 1,200 Climbing FAA TRACON SMA TRACON (SMA)
12:17AM 38.9239 -90.0439 78° East 231 266 10,500 1,320 Climbing FAA TRACON SMA TRACON (SMA)
12:18AM 38.9289 -90.0194 75° East 233 268 10,900 900 Climbing FAA TRACON SMA TRACON (SMA)
12:18AM 38.9350 -89.9881 76° East 236 272 11,100 300 Climbing FAA TRACON SMA TRACON (SMA)
12:18AM 38.9408 -89.9600 75° East 255 293 11,100 -300 Level FAA TRACON SMA TRACON (SMA)
12:19AM 38.9467 -89.9306 76° East 271 312 10,900 -360 Descending FAA TRACON SMA TRACON (SMA)
12:19AM 38.9525 -89.8997 76° East 285 328 10,900  Level FAA TRACON SMA TRACON (SMA)
12:19AM 38.9600 -89.8608 76° East 294 338 10,900  Level FAA TRACON SMA TRACON (SMA)
12:20AM 38.9664 -89.8289 76° East 298 343 10,900  Level FAA TRACON SMA TRACON (SMA)
12:20AM 38.9733 -89.7972 74° East 301 346 10,900  Level FAA TRACON SMA TRACON (SMA)
12:20AM 38.9806 -89.7564 77° East 303 349 10,900 300 Level FAA TRACON SMA TRACON (SMA)
12:21AM 38.9869 -89.7242 76° East 304 350 11,100 1,020 Climbing FAA TRACON SMA TRACON (SMA)
12:21AM 38.9928 -89.6928 77° East 298 343 11,600 1,500 Climbing FAA TRACON SMA TRACON (SMA)
12:21AM 38.9997 -89.6561 76° East 281 323 12,100 1,500 Climbing FAA TRACON SMA TRACON (SMA)
12:22AM 39.0067 -89.6286 72° East 266 306 12,600 1,500 Climbing FAA TRACON SMA TRACON (SMA)
12:22AM 39.0125 -89.6017 74° East 259 298 13,100 1,740 Climbing FAA TRACON SMA TRACON (SMA)
12:22AM 39.0197 -89.5689 74° East 252 290 13,800 1,800 Climbing FAA TRACON SMA TRACON (SMA)
12:23AM 39.0236 -89.5419 79° East 248 285 14,300 1,500 Climbing FAA TRACON SMA TRACON (SMA)
12:23AM 39.0281 -89.5158 78° East 244 281 14,800 1,620 Climbing FAA TRACON SMA TRACON (SMA)
12:23AM 39.0361 -89.4850 71° East 238 274 15,500 1,620 Climbing FAA TRACON SMA TRACON (SMA)
12:24AM 39.0431 -89.4536 74° East 237 273 16,000 1,440 Climbing FAA TRACON SMA TRACON (SMA)
12:24AM 39.0458 -89.4344 79° East 237 273 16,400 1,440 Climbing FAA TRACON SMA TRACON (SMA)
12:24AM 39.0508 -89.4031 78° East 235 270 16,900 1,500 Climbing FAA TRACON SMA TRACON (SMA)
12:25AM 39.0561 -89.3786 74° East 231 266 17,400 1,320 Climbing FAA TRACON SMA TRACON (SMA)
12:25AM 39.0611 -89.3547 75° East 228 262 17,800 1,200 Climbing FAA TRACON SMA TRACON (SMA)
12:25AM 39.0678 -89.3250 74° East 225 259 18,200 1,200 Climbing FAA TRACON SMA TRACON (SMA)
12:26AM 39.0714 -89.3000 79° East 228 262 18,600 900 Climbing FAA TRACON SMA TRACON (SMA)
12:26AM 39.0764 -89.2753 75° East 232 267 18,800 600 Climbing FAA TRACON SMA TRACON (SMA)
12:26AM 39.0833 -89.2428 75° East 243 280 19,000 300 Climbing FAA TRACON SMA TRACON (SMA)
12:27AM 39.0847 -89.2131 87° East 259 298 19,000  Level FAA TRACON SMA TRACON (SMA)
12:27AM 39.0892 -89.1828 79° East 275 316 19,000  Level FAA TRACON SMA TRACON (SMA)
12:27AM 39.0897 -89.1422 89° East 291 335 19,000  Level FAA TRACON SMA TRACON (SMA)
12:28AM 39.0897 -89.1422 322° Northwest 291 335 19,000  Level FAA TRACON SMA TRACON (SMA)
12:28AM 39.0897 -89.1422 322° Northwest 291 335 19,000  Level FAA TRACON SMA TRACON (SMA)
12:28AM 39.0914 -89.0742 88° East 312 359 19,000  Level Kansas City Center
12:30AM 39.0922 -88.9572 89° East 325 374 19,000  Level Kansas City Center
12:31AM 39.1064 -88.8414 81° East 326 375 19,000  Level Kansas City Center
12:31AM 39.1297 -88.7292 75° East 326 375 19,000  Level Kansas City Center
12:33AM 39.1569 -88.6192 72° East 325 374 19,000  Level Kansas City Center
12:34AM 39.1739 -88.5114 79° East 321 369 19,100  Climbing Kansas City Center
12:35AM 39.1953 -88.3997 76° East 319 367 19,100  Level Kansas City Center
12:36AM 39.2169 -88.2869 76° East 321 369 19,100  Level Kansas City Center
12:37AM 39.2369 -88.1747 77° East 321 369 19,100  Level Kansas City Center
12:38AM 39.2644 -88.0631 72° East 321 369 19,100  Level Kansas City Center
12:39AM 39.3053 -87.9606 63° Northeast 319 367 19,100  Level Kansas City Center
12:39AM 39.3456 -87.8581 63° Northeast 324 373 19,100  Level Indianapolis Center
12:41AM 39.3897 -87.7489 62° Northeast 321 369 19,100  Level Indianapolis Center
12:42AM 39.4272 -87.6439 65° Northeast 321 369 19,100  Level Indianapolis Center
12:43AM 39.4353 -87.5292 85° East 320 368 19,100  Level Indianapolis Center
12:44AM 39.4322 -87.4158 92° East 315 362 19,100  Level Indianapolis Center
12:45AM 39.4214 -87.3036 97° East 314 361 19,100  Level Indianapolis Center
12:46AM 39.4347 -87.1886 81° East 323 372 19,100  Level Indianapolis Center
12:47AM 39.4564 -87.0764 76° East 323 372 19,100  Level Indianapolis Center
12:48AM 39.4764 -86.9631 77° East 322 371 19,100  Level Indianapolis Center
12:49AM 39.4961 -86.8469 78° East 327 376 19,100  Level Indianapolis Center
12:50AM 39.5161 -86.7331 77° East 323 372 19,100  Level Indianapolis Center
12:51AM 39.5350 -86.6217 78° East 316 364 19,100  Level Indianapolis Center
12:52AM 39.5531 -86.5150 78° East 304 350 19,100  Level Indianapolis Center
12:53AM 39.5711 -86.4081 78° East 305 351 19,100  Level Indianapolis Center
12:54AM 39.5897 -86.2981 78° East 313 360 19,100  Level Indianapolis Center
12:55AM 39.6075 -86.1875 78° East 316 364 19,100  Level Indianapolis Center
12:56AM 39.6261 -86.0767 78° East 317 365 19,100  Level Indianapolis Center
12:57AM 39.6450 -85.9653 78° East 316 364 19,100  Level Indianapolis Center
12:58AM 39.6628 -85.8542 78° East 314 361 19,100  Level Indianapolis Center
12:59AM 39.6808 -85.7414 78° East 317 365 19,100 -60 Level Indianapolis Center
01:00AM 39.6986 -85.6303 78° East 313 360 19,000  Descending Indianapolis Center
01:01AM 39.7167 -85.5169 78° East 319 367 19,100  Climbing Indianapolis Center
01:02AM 39.7347 -85.4050 78° East 315 362 19,100 -60 Level Indianapolis Center
01:03AM 39.7528 -85.2933 78° East 315 362 19,000  Descending Indianapolis Center
01:04AM 39.7697 -85.1800 79° East 316 364 19,100  Climbing Indianapolis Center
01:05AM 39.7861 -85.0700 79° East 311 358 19,100  Level Indianapolis Center
01:06AM 39.8042 -84.9594 78° East 311 358 19,100  Level Indianapolis Center
01:07AM 39.8222 -84.8469 78° East 312 359 19,100 -60 Level Indianapolis Center
01:08AM 39.8381 -84.7342 80° East 315 362 19,000  Descending Indianapolis Center
01:09AM 39.8558 -84.6236 78° East 309 356 19,100  Climbing Indianapolis Center
01:10AM 39.8731 -84.5114 79° East 313 360 19,100 -360 Level Indianapolis Center
01:11AM 39.8897 -84.3986 79° East 320 368 18,400 -900 Descending Indianapolis Center
01:12AM 39.9081 -84.2767 79° East 338 389 17,300 -1,200 Descending Indianapolis Center
01:13AM 39.9269 -84.1533 79° East 344 396 16,000 -1,500 Descending Indianapolis Center
01:13AM 39.9325 -84.1044 82° East 339 390 15,300 -1,740 Descending Indianapolis Center
01:14AM 39.9414 -84.0431 79° East 330 380 14,500 -1,560 Descending Indianapolis Center
01:15AM 39.9586 -83.9311 79° East 315 362 13,000 -1,560 Descending Indianapolis Center
01:16AM 39.9753 -83.8189 79° East 311 358 11,400 -1,620 Descending Indianapolis Center
01:17AM 39.9900 -83.7089 80° East 308 354 9,800 -1,560 Descending Indianapolis Center
01:18AM 40.0036 -83.6072 80° East 278 320 8,300 -1,440 Descending Indianapolis Center
01:19AM 40.0192 -83.5111 78° East 274 315 6,900 -1,380 Descending Indianapolis Center
01:20AM 40.0328 -83.4092 80° East 268 308 5,600 -1,200 Descending Indianapolis Center
01:21AM 40.0456 -83.3181 80° East 257 296 4,500 -1,140 Descending Indianapolis Center
01:22AM 40.0575 -83.2378 79° East 208 239 3,400 -1,080 Descending Indianapolis Center
01:23AM 40.0700 -83.1794 74° East 168 193 2,500 -780 Descending Indianapolis Center
01:24AM 40.0756 -83.1283 82° East 122 140 1,900 -720 Descending Indianapolis Center
01:25AM 40.0764 -83.0875 88° East 105 121 1,100 -840 Descending Indianapolis Center
01:27AM 40.0667 -83.0667 90° East  Level FlightAware Approximate